createdAt,value
2022-10-01T00:05:01.701Z,99184.94
2022-10-01T00:10:07.207Z,99183.47
2022-10-01T00:15:13.564Z,99179.81
2022-10-01T00:20:17.892Z,99181.81
2022-10-01T00:25:22.597Z,99178.34
2022-10-01T00:30:28.081Z,99171.34
2022-10-01T00:35:32.103Z,99163.66
2022-10-01T00:40:36.385Z,99159.38
2022-10-01T00:45:42.596Z,99163.06
2022-10-01T00:50:49.909Z,99162.19
2022-10-01T00:55:56.984Z,99164.13
2022-10-01T01:01:02.489Z,99178.81
2022-10-01T01:06:10.666Z,99162.25
2022-10-01T01:11:24.376Z,99174.25
2022-10-01T01:16:36.297Z,99178.69
2022-10-01T01:21:45.109Z,99171.09
2022-10-01T01:27:17.152Z,99167.78
2022-10-01T01:32:28.317Z,99156.81
2022-10-01T01:37:37.225Z,99150.84
2022-10-01T01:42:44.755Z,99143.03
2022-10-01T01:47:51.625Z,99140.41
2022-10-01T01:52:55.758Z,99143.91
2022-10-01T01:58:00.605Z,99146.63
2022-10-01T02:03:06.847Z,99137.00
2022-10-01T02:08:28.560Z,99141.38
2022-10-01T02:13:41.597Z,99142.09
2022-10-01T02:19:14.922Z,99135.97
2022-10-01T02:24:34.161Z,99136.63
2022-10-01T02:29:42.285Z,99134.91
2022-10-01T02:34:49.481Z,99128.81
2022-10-01T02:39:57.157Z,99130.50
2022-10-01T02:45:02.496Z,99126.09
2022-10-01T02:50:10.704Z,99114.13
2022-10-01T02:55:17.051Z,99107.16
2022-10-01T03:00:22.532Z,99118.44
2022-10-01T03:05:28.981Z,99107.28
2022-10-01T03:10:32.285Z,99109.03
2022-10-01T03:15:36.396Z,99105.47
2022-10-01T03:20:41.890Z,99115.88
2022-10-01T03:25:46.066Z,99113.38
2022-10-01T03:30:50.342Z,99107.31
2022-10-01T03:35:55.918Z,99108.28
2022-10-01T03:41:00.172Z,99097.81
2022-10-01T03:46:04.576Z,99103.00
2022-10-01T03:51:10.244Z,99096.06
2022-10-01T03:56:14.305Z,99090.78
2022-10-01T04:01:18.579Z,99094.28
2022-10-01T04:06:24.352Z,99094.16
2022-10-01T04:11:28.054Z,99083.88
2022-10-01T04:16:32.750Z,99086.50
2022-10-01T04:21:39.934Z,99087.22
2022-10-01T04:26:43.994Z,99086.41
2022-10-01T04:31:48.312Z,99084.47
2022-10-01T04:36:53.845Z,99082.75
2022-10-01T04:41:57.929Z,99077.63
2022-10-01T04:47:02.041Z,99079.28
2022-10-01T04:52:07.830Z,99083.59
2022-10-01T04:57:13.045Z,99080.19
2022-10-01T05:02:18.247Z,99077.47
2022-10-01T05:07:23.802Z,99079.09
2022-10-01T05:12:27.168Z,99085.22
2022-10-01T05:17:33.823Z,99092.09
2022-10-01T05:22:38.793Z,99086.84
2022-10-01T05:27:43.118Z,99070.38
2022-10-01T05:32:56.167Z,99078.28
2022-10-01T05:38:03.502Z,99080.91
2022-10-01T05:43:06.773Z,99069.72
2022-10-01T05:48:11.760Z,99060.09
2022-10-01T05:53:16.705Z,99065.41
2022-10-01T05:58:20.786Z,99050.63
2022-10-01T06:03:24.301Z,99058.47
2022-10-01T06:08:29.806Z,99061.56
2022-10-01T06:13:33.351Z,99049.38
2022-10-01T06:18:37.399Z,99057.91
2022-10-01T06:23:44.393Z,99055.97
2022-10-01T06:28:51.779Z,99058.53
2022-10-01T06:33:55.115Z,99049.13
2022-10-01T06:39:00.918Z,99042.72
2022-10-01T06:44:04.330Z,99034.75
2022-10-01T06:49:08.519Z,99037.88
2022-10-01T06:54:14.660Z,99026.28
2022-10-01T06:59:18.813Z,99021.78
2022-10-01T07:04:22.642Z,99011.81
2022-10-01T07:09:27.773Z,99002.88
2022-10-01T07:14:31.098Z,99009.19
2022-10-01T07:19:36.395Z,99000.06
2022-10-01T07:24:41.099Z,98992.75
2022-10-01T07:29:45.876Z,98988.88
2022-10-01T07:34:49.239Z,98986.63
2022-10-01T07:39:54.732Z,98974.72
2022-10-01T07:44:58.353Z,98973.25
2022-10-01T07:50:02.360Z,98980.38
2022-10-01T07:55:11.203Z,98970.91
2022-10-01T08:00:15.456Z,98962.84
2022-10-01T08:05:20.266Z,98956.84
2022-10-01T08:10:25.057Z,98949.34
2022-10-01T08:15:28.572Z,98935.31
2022-10-01T08:20:32.656Z,98931.56
2022-10-01T08:25:37.993Z,98932.44
2022-10-01T08:30:43.284Z,98920.34
2022-10-01T08:35:46.775Z,98921.66
2022-10-01T08:40:52.638Z,98911.13
2022-10-01T08:45:59.957Z,98904.97
2022-10-01T08:51:07.278Z,98898.53
2022-10-01T08:56:20.910Z,98892.41
2022-10-01T09:01:24.358Z,98883.94
2022-10-01T09:06:29.479Z,98884.81
2022-10-01T09:11:45.828Z,98878.81
2022-10-01T09:16:57.784Z,98866.97
2022-10-01T09:22:05.097Z,98866.81
2022-10-01T09:27:16.249Z,98847.78
2022-10-01T09:32:23.248Z,98837.66
2022-10-01T09:37:33.354Z,98805.91
2022-10-01T09:42:38.099Z,98830.56
2022-10-01T09:47:43.881Z,98818.28
2022-10-01T09:52:51.883Z,98822.25
2022-10-01T09:58:02.923Z,98813.88
2022-10-01T10:03:06.710Z,98809.78
2022-10-01T10:08:15.457Z,98805.22
2022-10-01T10:13:26.662Z,98795.94
2022-10-01T10:18:34.729Z,98790.78
2022-10-01T10:23:48.391Z,98795.28
2022-10-01T10:28:53.209Z,98785.78
2022-10-01T10:34:06.998Z,98768.94
2022-10-01T10:39:21.506Z,98777.44
2022-10-01T10:44:30.402Z,98749.72
2022-10-01T10:49:37.733Z,98755.34
2022-10-01T10:54:47.984Z,98749.16
2022-10-01T11:00:00.963Z,98747.81
2022-10-01T11:05:16.959Z,98744.66
2022-10-01T11:10:30.775Z,98732.78
2022-10-01T11:15:49.671Z,98739.09
2022-10-01T11:21:09.126Z,98716.44
2022-10-01T11:26:22.456Z,98718.31
2022-10-01T11:31:38.163Z,98715.53
2022-10-01T11:36:49.197Z,98710.69
2022-10-01T11:41:59.818Z,98702.56
2022-10-01T11:47:09.792Z,98699.88
2022-10-01T11:52:22.305Z,98694.97
2022-10-01T11:57:51.062Z,98699.13
2022-10-01T12:03:01.977Z,98694.97
2022-10-01T12:08:14.356Z,98691.66
2022-10-01T12:13:29.218Z,98688.47
2022-10-01T12:18:46.597Z,98670.84
2022-10-01T12:23:55.878Z,98664.06
2022-10-01T12:29:09.070Z,98652.69
2022-10-01T12:34:23.821Z,98637.97
2022-10-01T12:39:45.344Z,98631.84
2022-10-01T12:45:03.437Z,98636.59
2022-10-01T12:50:23.478Z,98625.94
2022-10-01T12:55:47.271Z,98621.34
2022-10-01T13:01:06.004Z,98602.75
2022-10-01T13:06:25.759Z,98621.75
2022-10-01T13:11:44.985Z,98616.03
2022-10-01T13:16:57.796Z,98609.91
2022-10-01T13:22:15.020Z,98603.47
2022-10-01T13:27:24.552Z,98600.28
2022-10-01T13:32:32.344Z,98592.19
2022-10-01T13:37:40.810Z,98589.38
2022-10-01T13:42:47.134Z,98591.50
2022-10-01T13:47:51.928Z,98587.50
2022-10-01T13:53:07.581Z,98571.34
2022-10-01T13:58:25.077Z,98575.53
2022-10-01T14:03:46.365Z,98574.78
2022-10-01T14:08:55.860Z,98577.19
2022-10-01T14:14:22.836Z,98577.53
2022-10-01T14:19:29.855Z,98575.97
2022-10-01T14:24:50.447Z,98567.72
2022-10-01T14:30:06.025Z,98541.31
2022-10-01T14:35:30.498Z,98550.72
2022-10-01T14:40:41.094Z,98544.25
2022-10-01T14:45:53.823Z,98537.41
2022-10-01T14:51:00.613Z,98535.41
2022-10-01T14:56:09.052Z,98530.81
2022-10-01T15:01:19.848Z,98501.13
2022-10-01T15:06:28.925Z,98503.19
2022-10-01T15:11:38.939Z,98500.50
2022-10-01T15:16:45.681Z,98488.34
2022-10-01T15:21:52.702Z,98494.69
2022-10-01T15:26:59.599Z,98500.41
2022-10-01T15:32:05.469Z,98478.44
2022-10-01T15:37:16.199Z,98461.94
2022-10-01T15:42:30.740Z,98452.00
2022-10-01T15:47:36.365Z,98438.44
2022-10-01T15:52:52.163Z,98431.63
2022-10-01T15:58:04.316Z,98412.84
2022-10-01T16:03:07.842Z,98413.25
2022-10-01T16:08:22.640Z,98398.28
2022-10-01T16:13:38.800Z,98391.22
2022-10-01T16:18:43.870Z,98383.38
2022-10-01T16:23:49.644Z,98382.69
2022-10-01T16:28:58.947Z,98379.28
2022-10-01T16:34:03.001Z,98374.22
2022-10-01T16:39:08.807Z,98367.91
2022-10-01T16:44:15.016Z,98351.69
2022-10-01T16:49:19.227Z,98339.97
2022-10-01T16:54:32.359Z,98338.25
2022-10-01T16:59:37.976Z,98325.56
2022-10-01T17:04:41.821Z,98317.50
2022-10-01T17:09:46.044Z,98312.19
2022-10-01T17:14:51.357Z,98298.19
2022-10-01T17:19:56.428Z,98278.19
2022-10-01T17:24:59.906Z,98267.06
2022-10-01T17:30:06.213Z,98253.50
2022-10-01T17:35:13.828Z,98254.84
2022-10-01T17:40:18.723Z,98243.72
2022-10-01T17:45:24.974Z,98228.84
2022-10-01T17:50:32.278Z,98223.31
2022-10-01T17:55:37.263Z,98219.88
2022-10-01T18:00:43.945Z,98210.34
2022-10-01T18:05:48.557Z,98199.13
2022-10-01T18:10:51.848Z,98181.50
2022-10-01T18:16:03.035Z,98172.31
2022-10-01T18:21:09.353Z,98160.47
2022-10-01T18:26:15.258Z,98137.53
2022-10-01T18:31:24.853Z,98119.13
2022-10-01T18:36:44.284Z,98121.56
2022-10-01T18:41:49.484Z,98108.00
2022-10-01T18:47:19.150Z,98113.84
2022-10-01T18:52:35.874Z,98112.66
2022-10-01T18:57:59.239Z,98104.16
2022-10-01T19:03:37.484Z,98095.25
2022-10-01T19:09:06.690Z,98089.81
2022-10-01T19:14:34.763Z,98090.06
2022-10-01T19:19:53.651Z,98085.38
2022-10-01T19:25:08.728Z,98082.16
2022-10-01T19:30:15.437Z,98053.63
2022-10-01T19:35:23.414Z,98057.34
2022-10-01T19:40:33.648Z,98017.59
2022-10-01T19:45:46.850Z,98002.06
2022-10-01T19:50:58.866Z,98044.16
2022-10-01T19:56:04.345Z,98022.75
2022-10-01T20:01:11.877Z,98028.56
2022-10-01T20:06:23.563Z,98019.34
2022-10-01T20:11:31.445Z,98004.25
2022-10-01T20:16:41.521Z,97994.97
2022-10-01T20:21:59.509Z,97986.00
2022-10-01T20:27:12.410Z,97984.22
2022-10-01T20:32:21.895Z,97980.50
2022-10-01T20:37:44.296Z,97974.47
2022-10-01T20:42:51.489Z,97969.41
2022-10-01T20:48:00.960Z,97963.34
2022-10-01T20:53:30.991Z,97964.09
2022-10-01T20:58:44.308Z,97956.22
2022-10-01T21:03:53.063Z,97951.78
2022-10-01T21:09:02.893Z,97958.66
2022-10-01T21:14:13.949Z,97951.34
2022-10-01T21:19:29.190Z,97957.44
2022-10-01T21:24:57.618Z,97953.56
2022-10-01T21:30:13.131Z,97942.94
2022-10-01T21:35:27.255Z,97955.47
2022-10-01T21:40:44.955Z,97955.97
2022-10-01T21:45:57.758Z,97955.13
2022-10-01T21:51:08.351Z,97959.72
2022-10-01T21:56:38.070Z,97957.59
2022-10-01T22:02:05.967Z,97961.16
2022-10-01T22:07:18.977Z,97964.25
2022-10-01T22:12:28.100Z,97966.38
2022-10-01T22:17:35.564Z,97964.16
2022-10-01T22:22:40.257Z,97948.53
2022-10-01T22:27:47.697Z,97957.56
2022-10-01T22:32:57.393Z,97966.69
2022-10-01T22:38:09.524Z,97965.84
2022-10-01T22:43:15.405Z,97955.50
2022-10-01T22:48:36.283Z,97958.00
2022-10-01T22:53:54.414Z,97958.41
2022-10-01T22:59:10.172Z,97958.19
2022-10-01T23:04:33.143Z,97954.88
2022-10-01T23:09:42.054Z,97962.34
2022-10-01T23:14:59.603Z,97976.63
2022-10-01T23:20:18.459Z,97980.41
2022-10-01T23:25:35.829Z,97971.50
2022-10-01T23:30:53.652Z,97974.47
2022-10-01T23:36:06.923Z,97971.78
2022-10-01T23:41:17.177Z,97977.69
2022-10-01T23:46:29.548Z,97969.03
2022-10-01T23:51:39.948Z,97978.94
2022-10-01T23:56:52.922Z,97972.66
